createdAt,value
2022-08-27T00:02:25.879Z,1.58
2022-08-27T00:05:30.473Z,1.40
2022-08-27T00:08:35.512Z,1.13
2022-08-27T00:11:40.201Z,2.30
2022-08-27T00:14:45.097Z,1.65
2022-08-27T00:17:50.235Z,1.65
2022-08-27T00:20:54.906Z,2.00
2022-08-27T00:24:05.112Z,2.25
2022-08-27T00:27:18.247Z,2.13
2022-08-27T00:30:24.900Z,2.03
2022-08-27T00:33:30.660Z,1.50
2022-08-27T00:36:35.278Z,0.80
2022-08-27T00:39:39.750Z,1.98
2022-08-27T00:42:46.047Z,1.85
2022-08-27T00:45:54.617Z,1.17
2022-08-27T00:49:12.974Z,1.90
2022-08-27T00:52:36.527Z,2.38
2022-08-27T00:56:10.121Z,1.67
2022-08-27T00:59:16.822Z,1.95
2022-08-27T01:02:21.957Z,2.08
2022-08-27T01:05:28.189Z,1.92
2022-08-27T01:08:37.896Z,1.58
2022-08-27T01:11:44.874Z,2.13
2022-08-27T01:14:49.312Z,2.83
2022-08-27T01:17:55.444Z,1.88
2022-08-27T01:21:42.653Z,1.80
2022-08-27T01:24:50.267Z,2.75
2022-08-27T01:27:58.708Z,2.20
2022-08-27T01:31:06.651Z,3.60
2022-08-27T01:34:11.671Z,1.63
2022-08-27T01:37:17.214Z,1.85
2022-08-27T01:40:28.833Z,1.77
2022-08-27T01:43:34.068Z,2.03
2022-08-27T01:46:38.497Z,2.35
2022-08-27T01:49:43.298Z,2.17
2022-08-27T01:52:48.956Z,1.67
2022-08-27T01:55:55.437Z,2.75
2022-08-27T01:59:00.260Z,2.92
2022-08-27T02:02:06.048Z,1.27
2022-08-27T02:05:12.000Z,1.88
2022-08-27T02:08:17.624Z,1.88
2022-08-27T02:11:21.939Z,1.85
2022-08-27T02:14:27.210Z,2.22
2022-08-27T02:17:31.744Z,2.08
2022-08-27T02:20:36.813Z,1.60
2022-08-27T02:23:42.532Z,2.70
2022-08-27T02:26:46.926Z,1.88
2022-08-27T02:29:52.220Z,1.35
2022-08-27T02:33:00.969Z,2.10
2022-08-27T02:36:06.077Z,2.70
2022-08-27T02:39:11.584Z,2.13
2022-08-27T02:42:16.419Z,3.03
2022-08-27T02:45:21.811Z,2.00
2022-08-27T02:48:26.697Z,2.15
2022-08-27T02:51:31.336Z,1.70
2022-08-27T02:54:35.426Z,1.88
2022-08-27T02:57:40.005Z,3.13
2022-08-27T03:00:45.738Z,1.85
2022-08-27T03:03:50.637Z,2.60
2022-08-27T03:06:56.385Z,2.28
2022-08-27T03:10:00.656Z,2.25
2022-08-27T03:13:04.866Z,2.30
2022-08-27T03:16:09.462Z,2.00
2022-08-27T03:19:19.859Z,2.22
2022-08-27T03:22:28.746Z,3.60
2022-08-27T03:25:33.330Z,2.45
2022-08-27T03:28:38.783Z,2.75
2022-08-27T03:31:43.237Z,2.55
2022-08-27T03:34:47.573Z,2.85
2022-08-27T03:37:52.228Z,2.25
2022-08-27T03:40:56.911Z,2.58
2022-08-27T03:44:01.383Z,3.03
2022-08-27T03:47:06.426Z,1.40
2022-08-27T03:50:11.718Z,2.08
2022-08-27T03:53:20.380Z,2.28
2022-08-27T03:56:25.023Z,1.63
2022-08-27T03:59:30.542Z,2.25
2022-08-27T04:02:35.199Z,2.40
2022-08-27T04:05:39.963Z,2.67
2022-08-27T04:08:44.237Z,2.65
2022-08-27T04:11:48.708Z,3.28
2022-08-27T04:14:53.294Z,2.08
2022-08-27T04:17:57.539Z,2.33
2022-08-27T04:21:13.500Z,1.67
2022-08-27T04:24:18.186Z,2.95
2022-08-27T04:27:22.733Z,3.05
2022-08-27T04:30:27.286Z,2.75
2022-08-27T04:33:32.435Z,3.00
2022-08-27T04:36:37.844Z,2.30
2022-08-27T04:39:42.241Z,2.85
2022-08-27T04:42:49.006Z,2.88
2022-08-27T04:45:53.559Z,4.18
2022-08-27T04:49:02.347Z,2.78
2022-08-27T04:52:08.601Z,2.47
2022-08-27T04:55:13.389Z,2.53
2022-08-27T04:58:20.717Z,2.40
2022-08-27T05:01:28.507Z,2.28
2022-08-27T05:04:37.698Z,2.63
2022-08-27T05:07:43.428Z,1.80
2022-08-27T05:10:51.275Z,3.72
2022-08-27T05:13:56.079Z,3.47
2022-08-27T05:17:01.230Z,3.95
2022-08-27T05:20:06.418Z,3.85
2022-08-27T05:23:12.580Z,2.28
2022-08-27T05:26:17.083Z,2.60
2022-08-27T05:29:22.318Z,2.95
2022-08-27T05:32:26.568Z,2.33
2022-08-27T05:35:32.630Z,2.63
2022-08-27T05:38:37.240Z,2.10
2022-08-27T05:41:41.855Z,2.70
2022-08-27T05:44:46.808Z,2.70
2022-08-27T05:47:51.448Z,2.80
2022-08-27T05:50:56.254Z,2.95
2022-08-27T05:54:10.983Z,2.55
2022-08-27T05:57:15.767Z,2.38
2022-08-27T06:00:39.077Z,1.80
2022-08-27T06:03:46.176Z,2.25
2022-08-27T06:06:52.378Z,2.20
2022-08-27T06:09:58.838Z,2.00
2022-08-27T06:13:04.693Z,2.67
2022-08-27T06:16:16.341Z,2.70
2022-08-27T06:19:22.063Z,2.15
2022-08-27T06:22:26.413Z,1.73
2022-08-27T06:25:32.480Z,2.75
2022-08-27T06:28:40.916Z,2.08
2022-08-27T06:31:45.230Z,1.90
2022-08-27T06:34:49.992Z,3.60
2022-08-27T06:37:54.901Z,2.50
2022-08-27T06:40:59.816Z,2.55
2022-08-27T06:44:04.430Z,2.25
2022-08-27T06:47:09.489Z,2.53
2022-08-27T06:50:17.620Z,2.17
2022-08-27T06:53:24.639Z,2.80
2022-08-27T06:56:29.310Z,2.25
2022-08-27T06:59:34.538Z,1.75
2022-08-27T07:02:41.904Z,2.13
2022-08-27T07:05:51.120Z,1.02
2022-08-27T07:08:57.082Z,1.92
2022-08-27T07:12:01.934Z,2.17
2022-08-27T07:15:06.979Z,2.63
2022-08-27T07:18:11.698Z,1.55
2022-08-27T07:21:19.965Z,1.48
2022-08-27T07:24:24.685Z,1.38
2022-08-27T07:27:29.274Z,3.53
2022-08-27T07:30:34.545Z,2.17
2022-08-27T07:33:46.053Z,1.38
2022-08-27T07:36:57.624Z,2.38
2022-08-27T07:40:07.947Z,2.28
2022-08-27T07:43:30.592Z,2.15
2022-08-27T07:46:39.244Z,1.65
2022-08-27T07:49:44.912Z,2.15
2022-08-27T07:52:51.538Z,1.70
2022-08-27T07:55:56.142Z,0.90
2022-08-27T07:59:00.622Z,0.82
2022-08-27T08:02:05.438Z,1.23
2022-08-27T08:05:12.502Z,1.27
2022-08-27T08:08:17.278Z,1.70
2022-08-27T08:11:22.028Z,1.33
2022-08-27T08:14:26.916Z,1.02
2022-08-27T08:17:34.484Z,1.50
2022-08-27T08:20:57.193Z,1.00
2022-08-27T08:24:03.454Z,2.10
2022-08-27T08:27:08.084Z,1.27
2022-08-27T08:30:12.770Z,1.05
2022-08-27T08:33:17.698Z,1.30
2022-08-27T08:36:22.348Z,0.93
2022-08-27T08:39:27.051Z,2.03
2022-08-27T08:42:43.789Z,2.28
2022-08-27T08:46:02.022Z,0.68
2022-08-27T08:49:43.731Z,0.80
2022-08-27T08:53:06.928Z,1.15
2022-08-27T08:56:33.098Z,1.55
2022-08-27T08:59:51.448Z,1.02
2022-08-27T09:02:57.166Z,1.83
2022-08-27T09:06:42.873Z,1.63
2022-08-27T09:09:58.609Z,2.33
2022-08-27T09:13:05.810Z,1.35
2022-08-27T09:16:11.201Z,1.08
2022-08-27T09:19:15.398Z,3.00
2022-08-27T09:22:38.570Z,1.20
2022-08-27T09:25:44.801Z,1.45
2022-08-27T09:29:08.679Z,1.17
2022-08-27T09:32:13.446Z,3.35
2022-08-27T09:35:17.765Z,2.63
2022-08-27T09:38:29.448Z,2.28
2022-08-27T09:41:46.124Z,1.50
2022-08-27T09:44:53.752Z,2.40
2022-08-27T09:48:09.925Z,0.77
2022-08-27T09:51:22.072Z,1.50
2022-08-27T09:54:46.550Z,1.65
2022-08-27T09:57:51.461Z,3.00
2022-08-27T10:01:15.780Z,0.98
2022-08-27T10:04:51.469Z,1.27
2022-08-27T10:08:04.477Z,2.60
2022-08-27T10:11:26.108Z,0.70
2022-08-27T10:14:46.514Z,2.45
2022-08-27T10:18:10.078Z,1.17
2022-08-27T10:21:30.905Z,1.02
2022-08-27T10:25:24.180Z,1.02
2022-08-27T10:29:02.108Z,1.45
2022-08-27T10:32:38.270Z,1.17
2022-08-27T10:36:16.728Z,1.50
2022-08-27T10:39:40.296Z,1.58
2022-08-27T10:46:38.812Z,1.35
2022-08-27T10:50:11.953Z,1.95
2022-08-27T10:53:43.270Z,2.08
2022-08-27T10:57:39.982Z,1.35
2022-08-27T11:01:16.134Z,2.45
2022-08-27T11:04:28.489Z,1.92
2022-08-27T11:07:41.896Z,1.50
2022-08-27T11:11:04.583Z,1.02
2022-08-27T11:14:45.523Z,2.55
2022-08-27T11:18:22.222Z,1.63
2022-08-27T11:22:07.598Z,2.05
2022-08-27T11:26:04.078Z,2.10
2022-08-27T11:29:29.823Z,2.78
2022-08-27T11:32:49.287Z,1.83
2022-08-27T11:35:56.963Z,1.00
2022-08-27T11:39:20.606Z,0.82
2022-08-27T11:42:51.768Z,1.90
2022-08-27T11:46:02.810Z,0.90
2022-08-27T11:49:08.436Z,0.50
2022-08-27T11:52:22.275Z,1.48
2022-08-27T11:58:53.327Z,3.20
2022-08-27T12:02:27.695Z,1.40
2022-08-27T12:05:48.724Z,1.35
2022-08-27T12:09:05.252Z,1.33
2022-08-27T12:12:46.511Z,1.88
2022-08-27T12:16:28.347Z,1.92
2022-08-27T12:20:10.100Z,1.77
2022-08-27T12:23:40.073Z,1.80
2022-08-27T12:27:01.347Z,1.27
2022-08-27T12:30:49.273Z,2.05
2022-08-27T12:33:54.611Z,2.30
2022-08-27T12:37:01.703Z,1.10
2022-08-27T12:40:37.959Z,1.95
2022-08-27T12:43:43.935Z,2.33
2022-08-27T12:47:13.342Z,1.45
2022-08-27T12:50:30.603Z,2.97
2022-08-27T12:53:45.264Z,2.47
2022-08-27T12:57:29.355Z,2.08
2022-08-27T13:01:06.162Z,1.58
2022-08-27T13:04:25.736Z,1.73
2022-08-27T13:07:38.934Z,2.13
2022-08-27T13:10:43.602Z,1.77
2022-08-27T13:13:50.578Z,2.22
2022-08-27T13:17:03.077Z,1.73
2022-08-27T13:20:23.781Z,1.63
2022-08-27T13:23:28.691Z,2.20
2022-08-27T13:26:38.965Z,2.00
2022-08-27T13:29:43.955Z,2.10
2022-08-27T13:32:50.187Z,1.02
2022-08-27T13:35:57.628Z,1.58
2022-08-27T13:39:05.269Z,1.13
2022-08-27T13:42:10.195Z,1.58
2022-08-27T13:45:17.791Z,1.83
2022-08-27T13:48:24.341Z,2.15
2022-08-27T13:51:33.253Z,1.10
2022-08-27T13:54:38.001Z,2.25
2022-08-27T13:57:47.724Z,1.95
2022-08-27T14:00:53.169Z,1.17
2022-08-27T14:04:06.543Z,1.73
2022-08-27T14:07:47.578Z,2.08
2022-08-27T14:11:08.054Z,3.90
2022-08-27T14:14:13.327Z,1.63
2022-08-27T14:17:35.582Z,1.40
2022-08-27T14:20:40.209Z,1.75
2022-08-27T14:23:45.191Z,1.75
2022-08-27T14:27:02.009Z,1.83
2022-08-27T14:30:09.775Z,1.30
2022-08-27T14:33:14.552Z,1.98
2022-08-27T14:36:20.025Z,2.45
2022-08-27T14:39:26.740Z,2.53
2022-08-27T14:42:31.886Z,3.30
2022-08-27T14:45:39.819Z,4.70
2022-08-27T14:48:46.230Z,1.27
2022-08-27T14:51:56.838Z,1.02
2022-08-27T14:55:01.579Z,1.48
2022-08-27T14:58:06.594Z,1.05
2022-08-27T15:01:12.135Z,0.90
2022-08-27T15:04:17.045Z,3.05
2022-08-27T15:07:22.811Z,2.05
2022-08-27T15:10:28.233Z,1.85
2022-08-27T15:13:33.059Z,1.73
2022-08-27T15:16:42.053Z,1.67
2022-08-27T15:19:46.638Z,1.10
2022-08-27T15:22:52.733Z,1.50
2022-08-27T15:25:57.176Z,1.75
2022-08-27T15:29:06.195Z,1.67
2022-08-27T15:32:30.234Z,2.47
2022-08-27T15:35:35.290Z,0.90
2022-08-27T15:38:40.796Z,2.25
2022-08-27T15:42:05.075Z,1.45
2022-08-27T15:45:11.978Z,1.17
2022-08-27T15:48:16.663Z,1.85
2022-08-27T15:51:33.218Z,0.90
2022-08-27T15:54:39.013Z,1.25
2022-08-27T15:57:44.030Z,1.23
2022-08-27T16:00:49.220Z,1.08
2022-08-27T16:04:05.056Z,2.08
2022-08-27T16:07:10.226Z,1.33
2022-08-27T16:10:15.874Z,1.30
2022-08-27T16:13:20.573Z,1.70
2022-08-27T16:16:32.771Z,1.10
2022-08-27T16:19:39.811Z,1.95
2022-08-27T16:22:45.027Z,2.47
2022-08-27T16:25:49.434Z,1.48
2022-08-27T16:28:54.500Z,1.75
2022-08-27T16:32:01.269Z,1.48
2022-08-27T16:35:08.946Z,1.35
2022-08-27T16:38:13.682Z,1.23
2022-08-27T16:41:18.380Z,1.42
2022-08-27T16:44:26.101Z,2.58
2022-08-27T16:47:30.582Z,1.90
2022-08-27T16:50:36.583Z,2.13
2022-08-27T16:53:42.878Z,1.67
2022-08-27T16:56:47.477Z,0.60
2022-08-27T16:59:51.951Z,1.50
2022-08-27T17:02:57.929Z,1.15
2022-08-27T17:06:02.763Z,0.95
2022-08-27T17:09:07.903Z,2.20
2022-08-27T17:12:14.314Z,1.77
2022-08-27T17:15:19.136Z,1.88
2022-08-27T17:18:27.742Z,2.85
2022-08-27T17:21:34.097Z,0.75
2022-08-27T17:24:38.627Z,1.63
2022-08-27T17:27:43.544Z,1.70
2022-08-27T17:30:48.523Z,1.80
2022-08-27T17:33:53.726Z,2.38
2022-08-27T17:36:58.529Z,1.00
2022-08-27T17:40:05.258Z,1.45
2022-08-27T17:43:10.265Z,2.05
2022-08-27T17:46:15.890Z,0.70
2022-08-27T17:49:21.449Z,0.82
2022-08-27T17:52:26.374Z,3.03
2022-08-27T17:55:31.702Z,1.70
2022-08-27T17:58:36.652Z,2.50
2022-08-27T18:01:41.761Z,2.55
2022-08-27T18:04:46.969Z,1.42
2022-08-27T18:07:53.379Z,1.85
2022-08-27T18:10:58.218Z,0.77
2022-08-27T18:14:05.053Z,2.05
2022-08-27T18:17:10.006Z,1.48
2022-08-27T18:20:19.612Z,1.00
2022-08-27T18:23:25.131Z,1.85
2022-08-27T18:26:31.309Z,1.20
2022-08-27T18:29:35.887Z,1.27
2022-08-27T18:32:41.433Z,2.08
2022-08-27T18:35:46.336Z,1.45
2022-08-27T18:38:51.062Z,2.25
2022-08-27T18:41:55.508Z,2.35
2022-08-27T18:45:05.120Z,3.05
2022-08-27T18:48:17.986Z,2.60
2022-08-27T18:51:22.841Z,2.63
2022-08-27T18:54:27.878Z,1.67
2022-08-27T18:57:32.741Z,1.80
2022-08-27T19:00:39.855Z,2.50
2022-08-27T19:03:50.551Z,2.58
2022-08-27T19:06:55.106Z,3.05
2022-08-27T19:10:00.253Z,2.92
2022-08-27T19:13:04.934Z,2.13
2022-08-27T19:16:19.873Z,1.42
2022-08-27T19:19:25.895Z,1.65
2022-08-27T19:22:39.155Z,1.52
2022-08-27T19:25:29.984Z,2.90
2022-08-27T19:28:45.126Z,2.47
2022-08-27T19:31:50.305Z,1.92
2022-08-27T19:35:23.595Z,1.27
2022-08-27T19:38:31.846Z,1.92
2022-08-27T19:41:37.040Z,2.25
2022-08-27T19:44:41.611Z,2.95
2022-08-27T19:47:46.462Z,1.65
2022-08-27T19:50:51.386Z,2.30
2022-08-27T19:53:56.489Z,2.45
2022-08-27T19:57:01.314Z,3.22
2022-08-27T20:00:09.402Z,2.70
2022-08-27T20:03:17.148Z,2.97
2022-08-27T20:06:25.594Z,2.92
2022-08-27T20:13:22.254Z,3.58
2022-08-27T20:16:54.438Z,3.22
2022-08-27T20:20:02.473Z,1.90
2022-08-27T20:23:08.043Z,2.53
2022-08-27T20:26:12.752Z,2.00
2022-08-27T20:29:22.400Z,1.95
2022-08-27T20:32:36.988Z,2.95
2022-08-27T20:35:41.278Z,3.55
2022-08-27T20:38:45.998Z,2.13
2022-08-27T20:41:51.665Z,2.15
2022-08-27T20:44:56.468Z,2.67
2022-08-27T20:48:04.191Z,2.72
2022-08-27T20:51:09.426Z,2.50
2022-08-27T20:54:13.609Z,2.90
2022-08-27T20:57:18.106Z,2.40
2022-08-27T21:00:22.783Z,2.53
2022-08-27T21:03:27.648Z,2.00
2022-08-27T21:06:33.608Z,3.05
2022-08-27T21:09:51.915Z,2.75
2022-08-27T21:13:04.789Z,2.70
2022-08-27T21:16:10.209Z,2.85
2022-08-27T21:19:14.909Z,3.05
2022-08-27T21:22:20.561Z,3.05
2022-08-27T21:25:26.921Z,3.15
2022-08-27T21:28:31.847Z,5.38
2022-08-27T21:31:36.589Z,2.00
2022-08-27T21:34:41.851Z,3.33
2022-08-27T21:37:47.940Z,3.15
2022-08-27T21:40:52.516Z,3.83
2022-08-27T21:43:57.311Z,3.80
2022-08-27T21:47:03.877Z,4.28
2022-08-27T21:50:09.806Z,3.78
2022-08-27T21:53:14.291Z,4.20
2022-08-27T21:56:19.018Z,4.57
2022-08-27T21:59:23.860Z,3.75
2022-08-27T22:02:39.671Z,2.38
2022-08-27T22:05:45.390Z,3.67
2022-08-27T22:08:50.205Z,2.97
2022-08-27T22:11:55.588Z,3.35
2022-08-27T22:15:00.105Z,4.20
2022-08-27T22:18:06.298Z,3.17
2022-08-27T22:21:11.050Z,3.50
2022-08-27T22:24:16.048Z,4.45
2022-08-27T22:27:20.683Z,4.68
2022-08-27T22:30:25.799Z,5.40
2022-08-27T22:33:30.590Z,4.50
2022-08-27T22:36:35.866Z,4.13
2022-08-27T22:39:40.505Z,3.47
2022-08-27T22:42:45.359Z,4.57
2022-08-27T22:45:50.166Z,3.95
2022-08-27T22:48:55.142Z,3.97
2022-08-27T22:51:59.830Z,4.50
2022-08-27T22:55:05.893Z,4.25
2022-08-27T22:58:10.142Z,3.35
2022-08-27T23:01:22.845Z,3.65
2022-08-27T23:04:44.949Z,5.75
2022-08-27T23:07:53.161Z,3.80
2022-08-27T23:10:57.472Z,3.28
2022-08-27T23:14:02.168Z,3.22
2022-08-27T23:17:06.917Z,4.47
2022-08-27T23:20:12.712Z,4.38
2022-08-27T23:23:17.496Z,4.10
2022-08-27T23:26:43.418Z,4.10
2022-08-27T23:29:48.870Z,4.72
2022-08-27T23:32:54.809Z,3.85
2022-08-27T23:35:59.374Z,3.97
2022-08-27T23:39:04.575Z,3.40
2022-08-27T23:42:09.895Z,4.03
2022-08-27T23:45:24.057Z,3.22
2022-08-27T23:48:28.333Z,3.42
2022-08-27T23:51:33.291Z,3.15
2022-08-27T23:54:38.323Z,2.65
2022-08-27T23:57:43.376Z,3.40
